Time;durP1;ratioP1;P1;durP2;ratioP2;P2;SDS_P1;SDS_P2;PMS_P1;PMS_P2;Temp;Humidity;BMP_temperature;BMP_pressure;BME280_temperature;BME280_humidity;BME280_pressure;Samples;Min_cycle;Max_cycle;Signal;HPM_P1;HPM_P2
2023/04/02 00:01:00;;;;;;;0.33;0.30;;;10.90;99.90;;;;;;20737736;28;20239;-68
2023/04/02 00:11:02;;;;;;;0.10;0.10;;;;;;;;;;20736885;28;20281;-68
2023/04/02 00:21:30;;;;;;;0.20;0.20;;;;;;;;;;20735416;28;20222;-68
2023/04/02 00:31:32;;;;;;;0.97;0.40;;;;;;;;;;20733055;28;20262;-69
2023/04/02 00:41:37;;;;;;;2.20;0.60;;;;;;;;;;20735650;28;20207;-68
2023/04/02 00:51:47;;;;;;;0.20;0.20;;;10.60;99.90;;;;;;20734673;28;20289;-68
2023/04/02 01:02:00;;;;;;;0.47;0.27;;;10.70;99.90;;;;;;20718778;28;20250;-68
2023/04/02 01:12:28;;;;;;;0.63;0.30;;;10.60;99.90;;;;;;20748625;28;20270;-69
2023/04/02 01:22:49;;;;;;;0.20;0.20;;;;;;;;;;20740975;28;20230;-68
2023/04/02 01:32:52;;;;;;;0.20;0.20;;;10.70;99.90;;;;;;20737704;28;20716;-67
2023/04/02 01:43:00;;;;;;;0.47;0.30;;;;;;;;;;20752057;28;20203;-69
2023/04/02 01:53:04;;;;;;;0.40;0.40;;;;;;;;;;20745579;28;20242;-68
2023/04/02 02:03:08;;;;;;;0.60;0.30;;;10.20;99.90;;;;;;20744084;28;20212;-69
2023/04/02 02:13:14;;;;;;;1.53;0.20;;;10.40;99.90;;;;;;20742649;28;20270;-68
2023/04/02 02:23:17;;;;;;;0.33;0.23;;;10.40;99.90;;;;;;20742723;28;20329;-68
2023/04/02 02:33:29;;;;;;;0.83;0.30;;;10.20;99.90;;;;;;20744246;28;20691;-68
2023/04/02 02:43:40;;;;;;;0.30;0.20;;;10.10;99.90;;;;;;20725524;28;20253;-68
2023/04/02 02:53:47;;;;;;;0.20;0.20;;;;;;;;;;20739441;28;20222;-68
2023/04/02 03:03:53;;;;;;;0.40;0.40;;;10.20;99.90;;;;;;20723273;28;20211;-68
2023/04/02 03:14:02;;;;;;;0.60;0.23;;;10.30;99.90;;;;;;20738778;28;20207;-68
2023/04/02 03:24:18;;;;;;;4.50;0.50;;;10.00;99.90;;;;;;20739714;28;20257;-68
2023/04/02 03:34:26;;;;;;;0.27;0.23;;;;;;;;;;20737795;28;20243;-69
2023/04/02 03:44:47;;;;;;;0.30;0.27;;;;;;;;;;20736657;28;20203;-68
2023/04/02 03:54:50;;;;;;;0.33;0.20;;;9.70;99.90;;;;;;20720688;28;20246;-69
2023/04/02 04:04:53;;;;;;;0.50;0.30;;;10.00;99.90;;;;;;20736724;28;20241;-68
2023/04/02 04:15:18;;;;;;;0.20;0.20;;;;;;;;;;20727301;28;20585;-68
2023/04/02 04:25:29;;;;;;;0.30;0.30;;;;;;;;;;20725330;28;20291;-68
2023/04/02 04:35:38;;;;;;;0.77;0.30;;;9.90;99.90;;;;;;20734391;28;20242;-68
2023/04/02 04:45:55;;;;;;;0.40;0.30;;;;;;;;;;20748323;28;20257;-68
2023/04/02 04:56:04;;;;;;;0.50;0.30;;;10.00;99.90;;;;;;20750162;28;20265;-69
2023/04/02 05:06:17;;;;;;;0.20;0.20;;;;;;;;;;20818415;22;20304;-70
2023/04/02 05:16:31;;;;;;;0.30;0.20;;;;;;;;;;20911367;28;20666;-70
2023/04/02 05:26:37;;;;;;;0.53;0.37;;;;;;;;;;20908980;28;20218;-69
2023/04/02 05:36:39;;;;;;;0.47;0.30;;;;;;;;;;20892424;28;20240;-70
2023/04/02 05:47:07;;;;;;;0.83;0.40;;;;;;;;;;20907987;28;20580;-69
2023/04/02 05:57:13;;;;;;;0.93;0.40;;;;;;;;;;20884112;28;20226;-70
2023/04/02 06:07:20;;;;;;;0.20;0.20;;;;;;;;;;20904637;28;20225;-70
2023/04/02 06:17:26;;;;;;;0.70;0.50;;;;;;;;;;20904260;28;20218;-70
2023/04/02 06:27:28;;;;;;;0.93;0.43;;;;;;;;;;20905517;28;20580;-70
2023/04/02 06:37:31;;;;;;;1.20;0.50;;;;;;;;;;20904274;28;20221;-70
2023/04/02 06:47:45;;;;;;;0.40;0.30;;;10.30;99.90;;;;;;20903737;28;20271;-71
2023/04/02 06:57:53;;;;;;;0.23;0.20;;;;;;;;;;20870588;28;20221;-71
2023/04/02 07:07:55;;;;;;;0.57;0.40;;;;;;;;;;20901577;28;20214;-71
2023/04/02 07:17:58;;;;;;;0.70;0.57;;;;;;;;;;20902097;28;20545;-71
2023/04/02 07:28:00;;;;;;;0.70;0.40;;;;;;;;;;20899875;28;20625;-71
2023/04/02 07:38:02;;;;;;;0.40;0.40;;;;;;;;;;20901684;28;20543;-71
2023/04/02 07:48:09;;;;;;;0.30;0.30;;;10.70;99.90;;;;;;20899001;28;20596;-71
2023/04/02 07:58:11;;;;;;;0.50;0.30;;;;;;;;;;20897965;28;20305;-71
2023/04/02 08:08:12;;;;;;;0.20;0.20;;;;;;;;;;20898377;28;20218;-71
2023/04/02 08:18:14;;;;;;;0.43;0.40;;;;;;;;;;20908195;28;20221;-71
2023/04/02 08:28:16;;;;;;;0.47;0.30;;;;;;;;;;20914264;28;20619;-71
2023/04/02 08:38:19;;;;;;;1.03;0.53;;;;;;;;;;20914803;28;20236;-71
2023/04/02 08:48:22;;;;;;;1.07;0.50;;;;;;;;;;20912022;28;21014;-71
2023/04/02 08:58:44;;;;;;;0.87;0.70;;;;;;;;;;20909267;28;20252;-70
2023/04/02 09:08:47;;;;;;;0.70;0.50;;;;;;;;;;20907266;28;20702;-72
2023/04/02 09:18:51;;;;;;;0.73;0.63;;;;;;;;;;20869820;28;20252;-71
2023/04/02 09:28:59;;;;;;;0.70;0.50;;;;;;;;;;20878670;28;20210;-71
2023/04/02 09:39:16;;;;;;;0.57;0.50;;;;;;;;;;20900009;28;20320;-68
2023/04/02 09:49:21;;;;;;;1.00;0.80;;;12.00;99.90;;;;;;20902058;28;20565;-71
2023/04/02 09:59:23;;;;;;;1.33;0.60;;;;;;;;;;20903061;28;20235;-71
2023/04/02 10:09:29;;;;;;;0.67;0.50;;;;;;;;;;20900872;28;20603;-71
2023/04/02 10:19:37;;;;;;;1.33;0.70;;;;;;;;;;20896775;28;20210;-71
2023/04/02 10:29:42;;;;;;;0.93;0.60;;;;;;;;;;20898149;28;20198;-71
2023/04/02 10:39:51;;;;;;;0.30;0.30;;;12.00;99.90;;;;;;20899301;28;20625;-71
2023/04/02 10:49:52;;;;;;;1.03;0.40;;;;;;;;;;20897349;28;20275;-70
2023/04/02 11:00:15;;;;;;;0.20;0.20;;;;;;;;;;20900096;28;20431;-71
2023/04/02 11:10:19;;;;;;;0.20;0.20;;;;;;;;;;20894138;28;20213;-70
2023/04/02 11:20:39;;;;;;;0.20;0.20;;;;;;;;;;20897673;28;20275;-71
2023/04/02 11:30:41;;;;;;;1.00;0.30;;;;;;;;;;20895150;28;20221;-73
2023/04/02 11:40:50;;;;;;;1.50;0.40;;;11.00;99.90;;;;;;20893053;28;20232;-71
2023/04/02 11:50:51;;;;;;;0.40;0.30;;;;;;;;;;20892235;28;20275;-71
2023/04/02 12:01:22;;;;;;;0.57;0.30;;;;;;;;;;20895006;28;20263;-71
2023/04/02 12:11:35;;;;;;;0.30;0.30;;;;;;;;;;20871523;28;20628;-73
2023/04/02 12:21:37;;;;;;;0.30;0.30;;;;;;;;;;20908415;22;20590;-73
2023/04/02 12:31:43;;;;;;;0.20;0.20;;;;;;;;;;20893550;28;20583;-73
2023/04/02 12:41:45;;;;;;;0.50;0.40;;;;;;;;;;20881555;28;20198;-73
2023/04/02 12:51:47;;;;;;;1.17;0.20;;;11.10;99.90;;;;;;20899279;28;20230;-73
2023/04/02 13:01:59;;;;;;;0.30;0.20;;;11.20;99.90;;;;;;20907295;28;20385;-72
2023/04/02 13:12:02;;;;;;;1.17;0.20;;;11.40;99.90;;;;;;20913628;28;20307;-72
2023/04/02 13:22:03;;;;;;;0.70;0.40;;;;;;;;;;20894870;28;20222;-72
2023/04/02 13:32:06;;;;;;;0.73;0.30;;;;;;;;;;20911696;28;20275;-72
2023/04/02 13:42:10;;;;;;;0.60;0.50;;;10.80;99.90;;;;;;20911751;28;20260;-72
2023/04/02 13:52:15;;;;;;;0.40;0.40;;;;;;;;;;20910875;28;20213;-72
2023/04/02 14:02:18;;;;;;;0.73;0.47;;;;;;;;;;20909980;28;20202;-72
2023/04/02 14:12:30;;;;;;;0.20;0.20;;;;;;;;;;20905036;28;20267;-71
2023/04/02 14:22:31;;;;;;;0.50;0.30;;;;;;;;;;20896632;28;20557;-71
2023/04/02 14:32:40;;;;;;;2.00;1.30;;;;;;;;;;20872898;28;20693;-71
2023/04/02 14:42:51;;;;;;;0.60;0.47;;;10.40;99.90;;;;;;20903104;28;20287;-71
2023/04/02 14:52:55;;;;;;;0.60;0.40;;;;;;;;;;20891070;28;20213;-71
2023/04/02 15:03:11;;;;;;;0.63;0.47;;;10.10;99.90;;;;;;20902867;28;20206;-71
2023/04/02 15:13:19;;;;;;;0.33;0.30;;;10.20;99.90;;;;;;20905423;28;20213;-71
2023/04/02 15:23:30;;;;;;;0.40;0.37;;;;;;;;;;20899329;28;20222;-71
2023/04/02 15:33:41;;;;;;;1.33;0.70;;;;;;;;;;20904276;28;20749;-70
2023/04/02 15:43:48;;;;;;;0.30;0.30;;;;;;;;;;20890777;28;20205;-71
2023/04/02 15:54:09;;;;;;;0.70;0.50;;;;;;;;;;20899973;28;20229;-72
2023/04/02 16:04:48;;;;;;;1.07;0.60;;;9.90;99.90;;;;;;20892053;28;20213;-72
2023/04/02 16:14:51;;;;;;;2.40;0.70;;;;;;;;;;20867376;28;20241;-72
2023/04/02 16:25:00;;;;;;;0.70;0.50;;;9.70;99.90;;;;;;20880406;28;20252;-72
2023/04/02 16:35:07;;;;;;;2.20;0.80;;;;;;;;;;20896008;28;20275;-72
2023/04/02 16:45:22;;;;;;;1.07;0.70;;;;;;;;;;20909400;28;20205;-72
2023/04/02 16:55:29;;;;;;;1.67;0.77;;;;;;;;;;20908745;28;20551;-71
2023/04/02 17:05:49;;;;;;;1.07;0.80;;;;;;;;;;20906933;28;20292;-71
2023/04/02 17:16:02;;;;;;;0.77;0.60;;;9.30;99.90;;;;;;20912795;28;20218;-71
2023/04/02 17:26:08;;;;;;;0.90;0.50;;;;;;;;;;20911960;28;20278;-71
2023/04/02 17:36:17;;;;;;;0.90;0.60;;;;;;;;;;20909986;28;20295;-71
2023/04/02 17:46:22;;;;;;;0.70;0.50;;;;;;;;;;20906426;28;20205;-71
2023/04/02 17:56:36;;;;;;;1.17;0.70;;;8.80;99.90;;;;;;20867333;28;20209;-71
2023/04/02 18:06:48;;;;;;;0.90;0.63;;;8.80;99.90;;;;;;20906760;28;20247;-71
2023/04/02 18:16:56;;;;;;;1.27;0.87;;;8.60;99.90;;;;;;20906300;28;20587;-71
2023/04/02 18:26:58;;;;;;;1.10;0.70;;;;;;;;;;20902871;28;20213;-71
2023/04/02 18:37:04;;;;;;;0.53;0.50;;;;;;;;;;20906233;28;20295;-71
2023/04/02 18:47:09;;;;;;;0.77;0.50;;;;;;;;;;20905009;28;20307;-71
2023/04/02 18:57:14;;;;;;;1.07;0.80;;;;;;;;;;20905483;28;20272;-71
2023/04/02 19:07:18;;;;;;;1.30;0.70;;;;;;;;;;20900169;28;20214;-71
2023/04/02 19:17:41;;;;;;;0.50;0.50;;;;;;;;;;20898459;22;20294;-70
2023/04/02 19:28:00;;;;;;;0.57;0.50;;;;;;;;;;20886601;28;20275;-69
2023/04/02 19:38:23;;;;;;;0.60;0.40;;;;;;;;;;20864235;28;20813;-70
2023/04/02 19:48:29;;;;;;;0.30;0.30;;;8.30;99.90;;;;;;20868823;28;20197;-70
2023/04/02 19:58:33;;;;;;;0.93;0.50;;;9.10;99.90;;;;;;20885275;28;20234;-70
2023/04/02 20:08:41;;;;;;;0.70;0.50;;;;;;;;;;20872022;28;20211;-70
2023/04/02 20:18:45;;;;;;;0.30;0.30;;;;;;;;;;20887627;28;20287;-71
2023/04/02 20:28:47;;;;;;;2.63;0.73;;;8.60;99.90;;;;;;20885523;28;20546;-71
2023/04/02 20:38:50;;;;;;;0.67;0.40;;;;;;;;;;20883936;28;20312;-71
2023/04/02 20:48:52;;;;;;;1.03;0.50;;;;;;;;;;20882287;28;20209;-71
2023/04/02 20:58:54;;;;;;;0.80;0.40;;;;;;;;;;20892429;28;20233;-70
2023/04/02 21:08:57;;;;;;;1.00;0.50;;;;;;;;;;20897740;28;20229;-70
2023/04/02 21:19:00;;;;;;;0.80;0.50;;;;;;;;;;20879401;28;20260;-70
2023/04/02 21:29:02;;;;;;;1.63;0.53;;;;;;;;;;20895884;28;20252;-70
2023/04/02 21:39:09;;;;;;;0.57;0.30;;;;;;;;;;20879039;28;20588;-70
2023/04/02 21:49:13;;;;;;;0.30;0.30;;;7.60;99.90;;;;;;20877722;28;20271;-70
2023/04/02 21:59:16;;;;;;;0.47;0.30;;;7.60;99.90;;;;;;20877274;28;20299;-70
2023/04/02 22:09:23;;;;;;;0.70;0.70;;;7.50;99.90;;;;;;20892907;28;20206;-70
2023/04/02 22:19:25;;;;;;;0.40;0.33;;;7.50;99.90;;;;;;20874968;28;20646;-70
2023/04/02 22:29:27;;;;;;;0.63;0.50;;;;;;;;;;20858686;28;20696;-70
2023/04/02 22:39:29;;;;;;;0.37;0.30;;;;;;;;;;20872906;28;20298;-70
2023/04/02 22:49:31;;;;;;;0.23;0.20;;;;;;;;;;20873057;28;20703;-70
2023/04/02 22:59:33;;;;;;;0.20;0.20;;;;;;;;;;20872574;28;20221;-70
2023/04/02 23:09:35;;;;;;;0.37;0.30;;;;;;;;;;20872047;28;20280;-70
2023/04/02 23:19:37;;;;;;;0.70;0.30;;;;;;;;;;20886896;28;20287;-70
2023/04/02 23:29:39;;;;;;;0.40;0.30;;;;;;;;;;20864410;28;20575;-70
2023/04/02 23:39:41;;;;;;;0.70;0.60;;;;;;;;;;20869607;28;20214;-70
2023/04/02 23:49:46;;;;;;;0.40;0.40;;;;;;;;;;20870060;28;20233;-70
2023/04/02 23:59:48;;;;;;;0.70;0.50;;;;;;;;;;20868369;28;20271;-70
